sensor_id;sensor_type;location;lat;lon;timestamp;P1;durP1;ratioP1;P2;durP2;ratioP2
40599;SDS011;26309;50.924;4.754;2023-05-27T00:00:06;19.23;;;5.72;;
40599;SDS011;26309;50.924;4.754;2023-05-27T00:02:33;19.40;;;5.38;;
40599;SDS011;26309;50.924;4.754;2023-05-27T00:04:59;17.92;;;5.35;;
40599;SDS011;26309;50.924;4.754;2023-05-27T00:07:25;15.95;;;5.20;;
40599;SDS011;26309;50.924;4.754;2023-05-27T00:09:51;22.35;;;5.72;;
40599;SDS011;26309;50.924;4.754;2023-05-27T00:12:18;22.48;;;5.55;;
40599;SDS011;26309;50.924;4.754;2023-05-27T00:14:52;22.05;;;6.00;;
40599;SDS011;26309;50.924;4.754;2023-05-27T00:17:18;20.67;;;5.32;;
40599;SDS011;26309;50.924;4.754;2023-05-27T00:19:44;22.63;;;5.63;;
40599;SDS011;26309;50.924;4.754;2023-05-27T00:22:12;19.40;;;5.60;;
40599;SDS011;26309;50.924;4.754;2023-05-27T00:24:38;19.85;;;5.57;;
40599;SDS011;26309;50.924;4.754;2023-05-27T00:27:06;19.17;;;5.70;;
40599;SDS011;26309;50.924;4.754;2023-05-27T00:29:33;26.30;;;6.03;;
40599;SDS011;26309;50.924;4.754;2023-05-27T00:32:00;21.08;;;5.82;;
40599;SDS011;26309;50.924;4.754;2023-05-27T00:34:33;21.85;;;5.47;;
40599;SDS011;26309;50.924;4.754;2023-05-27T00:37:00;21.08;;;5.57;;
40599;SDS011;26309;50.924;4.754;2023-05-27T00:39:27;19.70;;;5.50;;
40599;SDS011;26309;50.924;4.754;2023-05-27T00:41:53;19.95;;;6.03;;
40599;SDS011;26309;50.924;4.754;2023-05-27T00:44:20;18.75;;;5.00;;
40599;SDS011;26309;50.924;4.754;2023-05-27T00:46:46;17.67;;;5.60;;
40599;SDS011;26309;50.924;4.754;2023-05-27T00:49:13;21.85;;;5.32;;
40599;SDS011;26309;50.924;4.754;2023-05-27T00:51:40;18.70;;;5.20;;
40599;SDS011;26309;50.924;4.754;2023-05-27T00:54:09;17.50;;;5.93;;
40599;SDS011;26309;50.924;4.754;2023-05-27T00:56:36;18.10;;;5.85;;
40599;SDS011;26309;50.924;4.754;2023-05-27T00:59:02;25.23;;;6.63;;
40599;SDS011;26309;50.924;4.754;2023-05-27T01:01:28;27.08;;;6.05;;
40599;SDS011;26309;50.924;4.754;2023-05-27T01:03:54;25.88;;;6.13;;
40599;SDS011;26309;50.924;4.754;2023-05-27T01:12:31;20.20;;;5.72;;
40599;SDS011;26309;50.924;4.754;2023-05-27T01:14:57;21.02;;;6.00;;
40599;SDS011;26309;50.924;4.754;2023-05-27T01:17:24;16.65;;;4.85;;
40599;SDS011;26309;50.924;4.754;2023-05-27T01:19:52;15.48;;;5.82;;
40599;SDS011;26309;50.924;4.754;2023-05-27T01:22:25;25.85;;;6.25;;
40599;SDS011;26309;50.924;4.754;2023-05-27T01:24:53;20.63;;;6.28;;
40599;SDS011;26309;50.924;4.754;2023-05-27T01:27:19;22.00;;;6.13;;
40599;SDS011;26309;50.924;4.754;2023-05-27T01:29:47;20.95;;;6.15;;
40599;SDS011;26309;50.924;4.754;2023-05-27T01:34:44;17.17;;;5.63;;
40599;SDS011;26309;50.924;4.754;2023-05-27T01:37:34;21.27;;;6.25;;
40599;SDS011;26309;50.924;4.754;2023-05-27T01:40:06;22.73;;;5.83;;
40599;SDS011;26309;50.924;4.754;2023-05-27T01:42:38;18.47;;;5.93;;
40599;SDS011;26309;50.924;4.754;2023-05-27T01:45:05;23.03;;;6.50;;
40599;SDS011;26309;50.924;4.754;2023-05-27T01:47:32;27.83;;;6.47;;
40599;SDS011;26309;50.924;4.754;2023-05-27T01:49:58;25.83;;;5.93;;
40599;SDS011;26309;50.924;4.754;2023-05-27T01:52:25;18.27;;;6.33;;
40599;SDS011;26309;50.924;4.754;2023-05-27T01:54:51;18.92;;;5.85;;
40599;SDS011;26309;50.924;4.754;2023-05-27T01:57:17;21.03;;;6.03;;
40599;SDS011;26309;50.924;4.754;2023-05-27T01:59:44;19.17;;;6.20;;
40599;SDS011;26309;50.924;4.754;2023-05-27T02:02:10;22.37;;;6.73;;
40599;SDS011;26309;50.924;4.754;2023-05-27T02:04:36;25.83;;;6.40;;
40599;SDS011;26309;50.924;4.754;2023-05-27T02:07:02;22.83;;;5.70;;
40599;SDS011;26309;50.924;4.754;2023-05-27T02:09:28;24.47;;;6.43;;
40599;SDS011;26309;50.924;4.754;2023-05-27T02:11:54;21.53;;;6.60;;
40599;SDS011;26309;50.924;4.754;2023-05-27T02:14:20;28.33;;;6.83;;
40599;SDS011;26309;50.924;4.754;2023-05-27T02:16:47;18.83;;;6.60;;
40599;SDS011;26309;50.924;4.754;2023-05-27T02:19:15;21.73;;;6.20;;
40599;SDS011;26309;50.924;4.754;2023-05-27T02:21:42;23.97;;;6.87;;
40599;SDS011;26309;50.924;4.754;2023-05-27T02:24:08;19.93;;;6.20;;
40599;SDS011;26309;50.924;4.754;2023-05-27T02:26:33;18.73;;;5.97;;
40599;SDS011;26309;50.924;4.754;2023-05-27T02:28:59;20.87;;;6.53;;
40599;SDS011;26309;50.924;4.754;2023-05-27T02:31:25;20.77;;;6.97;;
40599;SDS011;26309;50.924;4.754;2023-05-27T02:33:51;22.70;;;7.10;;
40599;SDS011;26309;50.924;4.754;2023-05-27T02:36:17;23.40;;;6.30;;
40599;SDS011;26309;50.924;4.754;2023-05-27T02:38:43;21.30;;;7.17;;
40599;SDS011;26309;50.924;4.754;2023-05-27T02:41:10;19.47;;;6.67;;
40599;SDS011;26309;50.924;4.754;2023-05-27T02:43:35;23.03;;;6.87;;
40599;SDS011;26309;50.924;4.754;2023-05-27T02:46:01;21.63;;;6.47;;
40599;SDS011;26309;50.924;4.754;2023-05-27T02:48:27;24.83;;;6.60;;
40599;SDS011;26309;50.924;4.754;2023-05-27T02:50:53;27.00;;;7.07;;
40599;SDS011;26309;50.924;4.754;2023-05-27T02:53:19;20.10;;;6.63;;
40599;SDS011;26309;50.924;4.754;2023-05-27T02:55:45;19.93;;;6.70;;
40599;SDS011;26309;50.924;4.754;2023-05-27T02:58:11;21.90;;;6.77;;
40599;SDS011;26309;50.924;4.754;2023-05-27T03:00:37;24.77;;;7.07;;
40599;SDS011;26309;50.924;4.754;2023-05-27T03:03:03;21.27;;;7.03;;
40599;SDS011;26309;50.924;4.754;2023-05-27T03:05:33;26.33;;;7.00;;
40599;SDS011;26309;50.924;4.754;2023-05-27T03:08:00;20.83;;;6.87;;
40599;SDS011;26309;50.924;4.754;2023-05-27T03:10:26;24.70;;;7.83;;
40599;SDS011;26309;50.924;4.754;2023-05-27T03:12:55;27.17;;;7.20;;
40599;SDS011;26309;50.924;4.754;2023-05-27T03:15:21;29.37;;;8.00;;
40599;SDS011;26309;50.924;4.754;2023-05-27T03:17:47;24.40;;;7.53;;
40599;SDS011;26309;50.924;4.754;2023-05-27T03:20:12;24.10;;;7.73;;
40599;SDS011;26309;50.924;4.754;2023-05-27T03:22:38;22.10;;;6.67;;
40599;SDS011;26309;50.924;4.754;2023-05-27T03:25:05;26.17;;;7.30;;
40599;SDS011;26309;50.924;4.754;2023-05-27T03:27:31;22.47;;;7.60;;
40599;SDS011;26309;50.924;4.754;2023-05-27T03:29:57;30.00;;;8.17;;
40599;SDS011;26309;50.924;4.754;2023-05-27T03:32:23;26.60;;;7.23;;
40599;SDS011;26309;50.924;4.754;2023-05-27T03:34:50;22.27;;;6.63;;
40599;SDS011;26309;50.924;4.754;2023-05-27T03:37:16;32.07;;;7.87;;
40599;SDS011;26309;50.924;4.754;2023-05-27T03:39:41;24.30;;;7.60;;
40599;SDS011;26309;50.924;4.754;2023-05-27T03:42:07;30.97;;;8.07;;
40599;SDS011;26309;50.924;4.754;2023-05-27T03:44:34;26.17;;;7.97;;
40599;SDS011;26309;50.924;4.754;2023-05-27T03:47:01;31.33;;;7.83;;
40599;SDS011;26309;50.924;4.754;2023-05-27T03:49:27;19.93;;;7.77;;
40599;SDS011;26309;50.924;4.754;2023-05-27T03:51:54;27.53;;;8.10;;
40599;SDS011;26309;50.924;4.754;2023-05-27T03:54:20;21.97;;;7.93;;
40599;SDS011;26309;50.924;4.754;2023-05-27T03:56:45;27.27;;;8.80;;
40599;SDS011;26309;50.924;4.754;2023-05-27T03:59:11;26.67;;;7.93;;
40599;SDS011;26309;50.924;4.754;2023-05-27T04:01:37;26.37;;;7.53;;
40599;SDS011;26309;50.924;4.754;2023-05-27T04:04:03;25.80;;;7.63;;
40599;SDS011;26309;50.924;4.754;2023-05-27T04:06:29;21.83;;;7.27;;
40599;SDS011;26309;50.924;4.754;2023-05-27T04:08:56;21.53;;;7.63;;
40599;SDS011;26309;50.924;4.754;2023-05-27T04:11:23;26.40;;;8.27;;
40599;SDS011;26309;50.924;4.754;2023-05-27T04:13:51;27.37;;;9.00;;
40599;SDS011;26309;50.924;4.754;2023-05-27T04:16:17;22.43;;;7.80;;
40599;SDS011;26309;50.924;4.754;2023-05-27T04:18:43;24.03;;;8.20;;
40599;SDS011;26309;50.924;4.754;2023-05-27T04:21:16;28.83;;;8.50;;
40599;SDS011;26309;50.924;4.754;2023-05-27T04:23:43;22.43;;;7.37;;
40599;SDS011;26309;50.924;4.754;2023-05-27T04:26:09;27.00;;;8.70;;
40599;SDS011;26309;50.924;4.754;2023-05-27T04:28:34;23.37;;;8.17;;
40599;SDS011;26309;50.924;4.754;2023-05-27T04:31:01;26.13;;;7.93;;
40599;SDS011;26309;50.924;4.754;2023-05-27T04:33:28;23.43;;;8.10;;
40599;SDS011;26309;50.924;4.754;2023-05-27T04:35:53;19.50;;;7.47;;
40599;SDS011;26309;50.924;4.754;2023-05-27T04:38:21;23.07;;;7.57;;
40599;SDS011;26309;50.924;4.754;2023-05-27T04:40:50;24.90;;;8.27;;
40599;SDS011;26309;50.924;4.754;2023-05-27T04:43:20;22.97;;;8.07;;
40599;SDS011;26309;50.924;4.754;2023-05-27T04:45:46;28.80;;;8.87;;
40599;SDS011;26309;50.924;4.754;2023-05-27T04:48:13;27.53;;;8.37;;
40599;SDS011;26309;50.924;4.754;2023-05-27T04:50:40;27.03;;;8.87;;
40599;SDS011;26309;50.924;4.754;2023-05-27T04:53:06;25.93;;;8.30;;
40599;SDS011;26309;50.924;4.754;2023-05-27T04:55:33;23.73;;;8.37;;
40599;SDS011;26309;50.924;4.754;2023-05-27T04:57:59;24.43;;;8.77;;
40599;SDS011;26309;50.924;4.754;2023-05-27T05:00:29;25.87;;;7.87;;
40599;SDS011;26309;50.924;4.754;2023-05-27T05:03:07;29.47;;;8.50;;
40599;SDS011;26309;50.924;4.754;2023-05-27T05:05:33;23.80;;;8.33;;
40599;SDS011;26309;50.924;4.754;2023-05-27T05:08:00;23.23;;;7.90;;
40599;SDS011;26309;50.924;4.754;2023-05-27T05:10:25;25.15;;;7.78;;
40599;SDS011;26309;50.924;4.754;2023-05-27T05:12:51;23.67;;;8.32;;
40599;SDS011;26309;50.924;4.754;2023-05-27T05:15:17;24.48;;;7.82;;
40599;SDS011;26309;50.924;4.754;2023-05-27T05:17:43;30.48;;;8.32;;
40599;SDS011;26309;50.924;4.754;2023-05-27T05:20:09;21.50;;;8.68;;
40599;SDS011;26309;50.924;4.754;2023-05-27T05:22:37;25.70;;;8.25;;
40599;SDS011;26309;50.924;4.754;2023-05-27T05:25:03;17.30;;;8.10;;
40599;SDS011;26309;50.924;4.754;2023-05-27T05:27:29;26.00;;;8.02;;
40599;SDS011;26309;50.924;4.754;2023-05-27T05:29:55;19.20;;;8.27;;
40599;SDS011;26309;50.924;4.754;2023-05-27T05:32:21;23.77;;;9.07;;
40599;SDS011;26309;50.924;4.754;2023-05-27T05:34:47;24.02;;;8.25;;
40599;SDS011;26309;50.924;4.754;2023-05-27T05:37:13;21.45;;;7.70;;
40599;SDS011;26309;50.924;4.754;2023-05-27T05:39:40;20.42;;;8.30;;
40599;SDS011;26309;50.924;4.754;2023-05-27T05:42:07;19.17;;;7.80;;
40599;SDS011;26309;50.924;4.754;2023-05-27T05:44:33;28.77;;;8.95;;
40599;SDS011;26309;50.924;4.754;2023-05-27T05:46:59;20.55;;;8.38;;
40599;SDS011;26309;50.924;4.754;2023-05-27T05:49:25;22.10;;;8.27;;
40599;SDS011;26309;50.924;4.754;2023-05-27T05:51:51;27.60;;;9.00;;
40599;SDS011;26309;50.924;4.754;2023-05-27T05:54:17;25.23;;;9.52;;
40599;SDS011;26309;50.924;4.754;2023-05-27T05:56:43;23.17;;;8.25;;
40599;SDS011;26309;50.924;4.754;2023-05-27T05:59:09;26.40;;;8.73;;
40599;SDS011;26309;50.924;4.754;2023-05-27T06:01:35;26.98;;;8.50;;
40599;SDS011;26309;50.924;4.754;2023-05-27T06:04:01;21.58;;;9.20;;
40599;SDS011;26309;50.924;4.754;2023-05-27T06:06:32;18.60;;;8.18;;
40599;SDS011;26309;50.924;4.754;2023-05-27T06:08:58;24.00;;;8.82;;
40599;SDS011;26309;50.924;4.754;2023-05-27T06:11:23;21.25;;;8.32;;
40599;SDS011;26309;50.924;4.754;2023-05-27T06:13:51;22.67;;;8.48;;
40599;SDS011;26309;50.924;4.754;2023-05-27T06:16:17;27.38;;;9.10;;
40599;SDS011;26309;50.924;4.754;2023-05-27T06:18:43;25.27;;;9.43;;
40599;SDS011;26309;50.924;4.754;2023-05-27T06:21:11;28.48;;;9.55;;
40599;SDS011;26309;50.924;4.754;2023-05-27T06:23:37;22.70;;;8.30;;
40599;SDS011;26309;50.924;4.754;2023-05-27T06:26:03;21.90;;;8.05;;
40599;SDS011;26309;50.924;4.754;2023-05-27T06:28:29;20.55;;;7.88;;
40599;SDS011;26309;50.924;4.754;2023-05-27T06:30:55;23.45;;;8.23;;
40599;SDS011;26309;50.924;4.754;2023-05-27T06:33:21;22.23;;;7.57;;
40599;SDS011;26309;50.924;4.754;2023-05-27T06:35:47;25.60;;;7.80;;
40599;SDS011;26309;50.924;4.754;2023-05-27T06:38:13;19.48;;;8.50;;
40599;SDS011;26309;50.924;4.754;2023-05-27T06:40:39;24.65;;;8.65;;
40599;SDS011;26309;50.924;4.754;2023-05-27T06:43:05;19.73;;;7.97;;
40599;SDS011;26309;50.924;4.754;2023-05-27T06:45:31;30.38;;;9.75;;
40599;SDS011;26309;50.924;4.754;2023-05-27T06:47:57;25.10;;;8.73;;
40599;SDS011;26309;50.924;4.754;2023-05-27T06:50:23;29.23;;;8.65;;
40599;SDS011;26309;50.924;4.754;2023-05-27T06:52:49;23.98;;;8.27;;
40599;SDS011;26309;50.924;4.754;2023-05-27T06:55:15;30.55;;;8.82;;
40599;SDS011;26309;50.924;4.754;2023-05-27T06:57:42;26.92;;;8.95;;
40599;SDS011;26309;50.924;4.754;2023-05-27T07:00:08;23.58;;;8.45;;
40599;SDS011;26309;50.924;4.754;2023-05-27T07:02:34;19.60;;;8.73;;
40599;SDS011;26309;50.924;4.754;2023-05-27T07:05:00;22.90;;;8.20;;
40599;SDS011;26309;50.924;4.754;2023-05-27T07:07:26;27.67;;;9.25;;
40599;SDS011;26309;50.924;4.754;2023-05-27T07:09:52;23.38;;;8.15;;
40599;SDS011;26309;50.924;4.754;2023-05-27T07:12:20;23.58;;;8.55;;
40599;SDS011;26309;50.924;4.754;2023-05-27T07:14:46;22.40;;;8.25;;
40599;SDS011;26309;50.924;4.754;2023-05-27T07:17:11;24.38;;;8.07;;
40599;SDS011;26309;50.924;4.754;2023-05-27T07:19:37;24.05;;;8.15;;
40599;SDS011;26309;50.924;4.754;2023-05-27T07:22:03;26.40;;;8.77;;
40599;SDS011;26309;50.924;4.754;2023-05-27T07:24:29;25.17;;;8.95;;
40599;SDS011;26309;50.924;4.754;2023-05-27T07:26:59;22.80;;;8.82;;
40599;SDS011;26309;50.924;4.754;2023-05-27T07:29:25;18.63;;;8.00;;
40599;SDS011;26309;50.924;4.754;2023-05-27T07:31:51;20.13;;;8.77;;
40599;SDS011;26309;50.924;4.754;2023-05-27T07:34:17;21.52;;;7.72;;
40599;SDS011;26309;50.924;4.754;2023-05-27T07:36:43;26.95;;;8.65;;
40599;SDS011;26309;50.924;4.754;2023-05-27T07:39:08;25.67;;;8.30;;
40599;SDS011;26309;50.924;4.754;2023-05-27T07:41:34;28.17;;;8.20;;
40599;SDS011;26309;50.924;4.754;2023-05-27T07:44:00;25.83;;;8.07;;
40599;SDS011;26309;50.924;4.754;2023-05-27T07:46:26;23.30;;;8.15;;
40599;SDS011;26309;50.924;4.754;2023-05-27T07:48:52;21.80;;;8.10;;
40599;SDS011;26309;50.924;4.754;2023-05-27T07:51:17;27.42;;;8.25;;
40599;SDS011;26309;50.924;4.754;2023-05-27T07:53:43;26.17;;;9.00;;
40599;SDS011;26309;50.924;4.754;2023-05-27T07:56:09;21.40;;;7.90;;
40599;SDS011;26309;50.924;4.754;2023-05-27T07:58:35;23.17;;;7.75;;
40599;SDS011;26309;50.924;4.754;2023-05-27T08:01:01;26.05;;;8.30;;
40599;SDS011;26309;50.924;4.754;2023-05-27T08:03:27;20.90;;;8.73;;
40599;SDS011;26309;50.924;4.754;2023-05-27T08:05:53;23.05;;;8.23;;
40599;SDS011;26309;50.924;4.754;2023-05-27T08:08:19;22.55;;;8.13;;
40599;SDS011;26309;50.924;4.754;2023-05-27T08:10:45;19.92;;;8.32;;
40599;SDS011;26309;50.924;4.754;2023-05-27T08:13:11;18.38;;;7.95;;
40599;SDS011;26309;50.924;4.754;2023-05-27T08:15:37;21.88;;;7.80;;
40599;SDS011;26309;50.924;4.754;2023-05-27T08:18:03;21.13;;;8.25;;
40599;SDS011;26309;50.924;4.754;2023-05-27T08:20:28;17.50;;;7.60;;
40599;SDS011;26309;50.924;4.754;2023-05-27T08:22:54;22.75;;;8.02;;
40599;SDS011;26309;50.924;4.754;2023-05-27T08:25:20;22.92;;;8.02;;
40599;SDS011;26309;50.924;4.754;2023-05-27T08:27:53;23.83;;;8.13;;
40599;SDS011;26309;50.924;4.754;2023-05-27T08:30:29;26.75;;;7.82;;
40599;SDS011;26309;50.924;4.754;2023-05-27T08:32:55;22.00;;;7.78;;
40599;SDS011;26309;50.924;4.754;2023-05-27T08:35:22;18.88;;;7.53;;
40599;SDS011;26309;50.924;4.754;2023-05-27T08:37:48;21.73;;;7.38;;
40599;SDS011;26309;50.924;4.754;2023-05-27T08:40:14;20.08;;;7.18;;
40599;SDS011;26309;50.924;4.754;2023-05-27T08:42:41;24.75;;;8.20;;
40599;SDS011;26309;50.924;4.754;2023-05-27T08:45:08;21.10;;;7.60;;
40599;SDS011;26309;50.924;4.754;2023-05-27T08:47:34;21.45;;;7.70;;
40599;SDS011;26309;50.924;4.754;2023-05-27T08:50:01;20.10;;;7.95;;
40599;SDS011;26309;50.924;4.754;2023-05-27T08:52:28;22.58;;;8.00;;
40599;SDS011;26309;50.924;4.754;2023-05-27T08:54:54;23.52;;;7.57;;
40599;SDS011;26309;50.924;4.754;2023-05-27T08:57:27;21.00;;;7.43;;
40599;SDS011;26309;50.924;4.754;2023-05-27T08:59:55;27.52;;;8.25;;
40599;SDS011;26309;50.924;4.754;2023-05-27T09:02:22;15.75;;;7.18;;
40599;SDS011;26309;50.924;4.754;2023-05-27T09:04:48;22.92;;;7.68;;
40599;SDS011;26309;50.924;4.754;2023-05-27T09:07:15;19.35;;;7.28;;
40599;SDS011;26309;50.924;4.754;2023-05-27T09:09:41;22.65;;;8.45;;
40599;SDS011;26309;50.924;4.754;2023-05-27T09:12:08;21.88;;;7.13;;
40599;SDS011;26309;50.924;4.754;2023-05-27T09:14:34;24.17;;;7.40;;
40599;SDS011;26309;50.924;4.754;2023-05-27T09:17:07;20.63;;;7.00;;
40599;SDS011;26309;50.924;4.754;2023-05-27T09:19:34;20.73;;;7.25;;
40599;SDS011;26309;50.924;4.754;2023-05-27T09:22:00;23.52;;;7.72;;
40599;SDS011;26309;50.924;4.754;2023-05-27T09:24:27;17.33;;;7.70;;
40599;SDS011;26309;50.924;4.754;2023-05-27T09:26:53;27.67;;;8.95;;
40599;SDS011;26309;50.924;4.754;2023-05-27T09:29:26;23.98;;;8.02;;
40599;SDS011;26309;50.924;4.754;2023-05-27T09:31:55;22.52;;;7.28;;
40599;SDS011;26309;50.924;4.754;2023-05-27T09:34:21;19.90;;;7.28;;
40599;SDS011;26309;50.924;4.754;2023-05-27T09:36:48;22.27;;;7.45;;
40599;SDS011;26309;50.924;4.754;2023-05-27T09:39:18;24.52;;;7.57;;
40599;SDS011;26309;50.924;4.754;2023-05-27T09:41:53;25.25;;;7.40;;
40599;SDS011;26309;50.924;4.754;2023-05-27T09:44:21;20.95;;;7.07;;
40599;SDS011;26309;50.924;4.754;2023-05-27T09:46:55;22.42;;;7.90;;
40599;SDS011;26309;50.924;4.754;2023-05-27T09:49:23;21.45;;;6.97;;
40599;SDS011;26309;50.924;4.754;2023-05-27T09:51:52;18.58;;;7.03;;
40599;SDS011;26309;50.924;4.754;2023-05-27T09:54:20;24.65;;;7.32;;
40599;SDS011;26309;50.924;4.754;2023-05-27T09:56:46;19.33;;;7.55;;
40599;SDS011;26309;50.924;4.754;2023-05-27T09:59:14;21.25;;;7.53;;
40599;SDS011;26309;50.924;4.754;2023-05-27T10:01:40;22.35;;;7.70;;
40599;SDS011;26309;50.924;4.754;2023-05-27T10:04:09;20.77;;;7.82;;
40599;SDS011;26309;50.924;4.754;2023-05-27T10:06:36;23.27;;;7.47;;
40599;SDS011;26309;50.924;4.754;2023-05-27T10:09:02;24.52;;;8.00;;
40599;SDS011;26309;50.924;4.754;2023-05-27T10:11:32;18.77;;;7.00;;
40599;SDS011;26309;50.924;4.754;2023-05-27T10:14:03;21.13;;;6.72;;
40599;SDS011;26309;50.924;4.754;2023-05-27T10:16:29;20.13;;;6.70;;
40599;SDS011;26309;50.924;4.754;2023-05-27T10:18:58;19.50;;;6.90;;
40599;SDS011;26309;50.924;4.754;2023-05-27T10:21:28;19.63;;;7.15;;
40599;SDS011;26309;50.924;4.754;2023-05-27T10:24:00;21.45;;;7.32;;
40599;SDS011;26309;50.924;4.754;2023-05-27T10:26:37;15.27;;;6.40;;
40599;SDS011;26309;50.924;4.754;2023-05-27T10:29:06;21.88;;;6.47;;
40599;SDS011;26309;50.924;4.754;2023-05-27T10:31:33;18.05;;;7.15;;
40599;SDS011;26309;50.924;4.754;2023-05-27T10:34:03;21.38;;;6.70;;
40599;SDS011;26309;50.924;4.754;2023-05-27T10:36:33;19.15;;;7.20;;
40599;SDS011;26309;50.924;4.754;2023-05-27T10:39:04;20.27;;;7.00;;
40599;SDS011;26309;50.924;4.754;2023-05-27T10:41:51;19.25;;;6.07;;
40599;SDS011;26309;50.924;4.754;2023-05-27T10:44:28;16.83;;;6.00;;
40599;SDS011;26309;50.924;4.754;2023-05-27T10:47:02;21.90;;;6.45;;
40599;SDS011;26309;50.924;4.754;2023-05-27T10:49:33;17.73;;;5.90;;
40599;SDS011;26309;50.924;4.754;2023-05-27T10:52:15;21.58;;;5.47;;
40599;SDS011;26309;50.924;4.754;2023-05-27T10:54:42;14.35;;;5.22;;
40599;SDS011;26309;50.924;4.754;2023-05-27T10:57:17;17.92;;;6.25;;
40599;SDS011;26309;50.924;4.754;2023-05-27T10:59:47;14.43;;;5.70;;
40599;SDS011;26309;50.924;4.754;2023-05-27T11:02:15;18.02;;;5.28;;
40599;SDS011;26309;50.924;4.754;2023-05-27T11:04:45;19.90;;;5.45;;
40599;SDS011;26309;50.924;4.754;2023-05-27T11:07:12;20.38;;;5.00;;
40599;SDS011;26309;50.924;4.754;2023-05-27T11:09:46;17.30;;;6.32;;
40599;SDS011;26309;50.924;4.754;2023-05-27T11:12:21;22.48;;;6.13;;
40599;SDS011;26309;50.924;4.754;2023-05-27T11:14:50;17.02;;;5.80;;
40599;SDS011;26309;50.924;4.754;2023-05-27T11:17:19;14.88;;;5.13;;
40599;SDS011;26309;50.924;4.754;2023-05-27T11:19:46;15.70;;;5.15;;
40599;SDS011;26309;50.924;4.754;2023-05-27T11:22:12;15.32;;;5.35;;
40599;SDS011;26309;50.924;4.754;2023-05-27T11:24:39;19.95;;;5.75;;
40599;SDS011;26309;50.924;4.754;2023-05-27T11:27:09;15.15;;;5.22;;
40599;SDS011;26309;50.924;4.754;2023-05-27T11:29:37;18.67;;;5.43;;
40599;SDS011;26309;50.924;4.754;2023-05-27T11:32:06;13.75;;;5.57;;
40599;SDS011;26309;50.924;4.754;2023-05-27T11:34:35;19.60;;;5.90;;
40599;SDS011;26309;50.924;4.754;2023-05-27T11:37:02;16.55;;;5.47;;
40599;SDS011;26309;50.924;4.754;2023-05-27T11:39:29;14.98;;;5.43;;
40599;SDS011;26309;50.924;4.754;2023-05-27T11:41:56;14.00;;;5.20;;
40599;SDS011;26309;50.924;4.754;2023-05-27T11:44:23;17.80;;;5.45;;
40599;SDS011;26309;50.924;4.754;2023-05-27T11:46:50;16.80;;;5.80;;
40599;SDS011;26309;50.924;4.754;2023-05-27T11:49:24;14.88;;;5.00;;
40599;SDS011;26309;50.924;4.754;2023-05-27T11:51:50;16.63;;;5.93;;
40599;SDS011;26309;50.924;4.754;2023-05-27T11:54:23;16.75;;;5.82;;
40599;SDS011;26309;50.924;4.754;2023-05-27T11:56:50;21.33;;;6.07;;
40599;SDS011;26309;50.924;4.754;2023-05-27T11:59:17;17.08;;;5.70;;
40599;SDS011;26309;50.924;4.754;2023-05-27T12:01:43;20.15;;;5.65;;
40599;SDS011;26309;50.924;4.754;2023-05-27T12:04:10;14.88;;;5.50;;
40599;SDS011;26309;50.924;4.754;2023-05-27T12:06:36;20.17;;;5.47;;
40599;SDS011;26309;50.924;4.754;2023-05-27T12:09:06;14.18;;;5.10;;
40599;SDS011;26309;50.924;4.754;2023-05-27T12:11:33;16.77;;;4.72;;
40599;SDS011;26309;50.924;4.754;2023-05-27T12:14:00;15.45;;;5.18;;
40599;SDS011;26309;50.924;4.754;2023-05-27T12:16:26;20.83;;;5.32;;
40599;SDS011;26309;50.924;4.754;2023-05-27T12:18:52;15.50;;;5.00;;
40599;SDS011;26309;50.924;4.754;2023-05-27T12:21:18;11.73;;;4.55;;
40599;SDS011;26309;50.924;4.754;2023-05-27T12:23:45;20.00;;;5.03;;
40599;SDS011;26309;50.924;4.754;2023-05-27T12:26:12;16.33;;;6.00;;
40599;SDS011;26309;50.924;4.754;2023-05-27T12:28:38;15.68;;;5.13;;
40599;SDS011;26309;50.924;4.754;2023-05-27T12:31:05;14.57;;;4.85;;
40599;SDS011;26309;50.924;4.754;2023-05-27T12:33:31;17.08;;;4.80;;
40599;SDS011;26309;50.924;4.754;2023-05-27T12:35:57;15.27;;;4.72;;
40599;SDS011;26309;50.924;4.754;2023-05-27T12:38:23;14.93;;;5.28;;
40599;SDS011;26309;50.924;4.754;2023-05-27T12:40:49;19.85;;;5.53;;
40599;SDS011;26309;50.924;4.754;2023-05-27T12:43:17;12.98;;;4.68;;
40599;SDS011;26309;50.924;4.754;2023-05-27T12:45:44;18.23;;;5.25;;
40599;SDS011;26309;50.924;4.754;2023-05-27T12:48:14;12.38;;;4.95;;
40599;SDS011;26309;50.924;4.754;2023-05-27T12:50:40;15.52;;;4.80;;
40599;SDS011;26309;50.924;4.754;2023-05-27T12:53:07;20.60;;;4.97;;
40599;SDS011;26309;50.924;4.754;2023-05-27T12:55:33;12.90;;;4.85;;
40599;SDS011;26309;50.924;4.754;2023-05-27T12:58:00;14.15;;;5.28;;
40599;SDS011;26309;50.924;4.754;2023-05-27T13:00:26;11.70;;;4.70;;
40599;SDS011;26309;50.924;4.754;2023-05-27T13:02:53;21.25;;;5.32;;
40599;SDS011;26309;50.924;4.754;2023-05-27T13:05:19;16.88;;;5.00;;
40599;SDS011;26309;50.924;4.754;2023-05-27T13:07:58;15.23;;;4.68;;
40599;SDS011;26309;50.924;4.754;2023-05-27T13:10:26;15.10;;;5.40;;
40599;SDS011;26309;50.924;4.754;2023-05-27T13:12:53;16.15;;;4.45;;
40599;SDS011;26309;50.924;4.754;2023-05-27T13:15:19;15.48;;;4.80;;
40599;SDS011;26309;50.924;4.754;2023-05-27T13:17:50;13.10;;;5.10;;
40599;SDS011;26309;50.924;4.754;2023-05-27T13:20:17;13.75;;;4.70;;
40599;SDS011;26309;50.924;4.754;2023-05-27T13:22:44;11.98;;;4.70;;
40599;SDS011;26309;50.924;4.754;2023-05-27T13:25:11;16.75;;;5.05;;
40599;SDS011;26309;50.924;4.754;2023-05-27T13:27:38;15.77;;;4.68;;
40599;SDS011;26309;50.924;4.754;2023-05-27T13:30:07;21.88;;;5.13;;
40599;SDS011;26309;50.924;4.754;2023-05-27T13:32:33;14.82;;;4.80;;
40599;SDS011;26309;50.924;4.754;2023-05-27T13:34:59;17.65;;;4.82;;
40599;SDS011;26309;50.924;4.754;2023-05-27T13:37:26;13.32;;;5.22;;
40599;SDS011;26309;50.924;4.754;2023-05-27T13:39:52;18.08;;;5.05;;
40599;SDS011;26309;50.924;4.754;2023-05-27T13:42:18;12.02;;;4.55;;
40599;SDS011;26309;50.924;4.754;2023-05-27T13:44:44;14.98;;;5.00;;
40599;SDS011;26309;50.924;4.754;2023-05-27T13:47:10;18.15;;;5.05;;
40599;SDS011;26309;50.924;4.754;2023-05-27T13:49:35;14.65;;;5.15;;
40599;SDS011;26309;50.924;4.754;2023-05-27T13:52:01;19.17;;;5.20;;
40599;SDS011;26309;50.924;4.754;2023-05-27T13:54:27;14.13;;;4.95;;
40599;SDS011;26309;50.924;4.754;2023-05-27T13:56:53;14.57;;;4.97;;
40599;SDS011;26309;50.924;4.754;2023-05-27T13:59:20;17.25;;;4.65;;
40599;SDS011;26309;50.924;4.754;2023-05-27T14:01:46;16.48;;;5.38;;
40599;SDS011;26309;50.924;4.754;2023-05-27T14:04:12;16.35;;;4.65;;
40599;SDS011;26309;50.924;4.754;2023-05-27T14:06:38;14.73;;;4.70;;
40599;SDS011;26309;50.924;4.754;2023-05-27T14:09:04;14.05;;;4.50;;
40599;SDS011;26309;50.924;4.754;2023-05-27T14:11:30;13.98;;;4.80;;
40599;SDS011;26309;50.924;4.754;2023-05-27T14:13:56;13.90;;;4.63;;
40599;SDS011;26309;50.924;4.754;2023-05-27T14:16:22;13.10;;;5.05;;
40599;SDS011;26309;50.924;4.754;2023-05-27T14:18:48;14.75;;;4.93;;
40599;SDS011;26309;50.924;4.754;2023-05-27T14:21:15;12.38;;;4.20;;
40599;SDS011;26309;50.924;4.754;2023-05-27T14:23:41;13.88;;;4.90;;
40599;SDS011;26309;50.924;4.754;2023-05-27T14:26:07;13.60;;;4.47;;
40599;SDS011;26309;50.924;4.754;2023-05-27T14:28:33;12.30;;;4.78;;
40599;SDS011;26309;50.924;4.754;2023-05-27T14:30:59;16.77;;;4.85;;
40599;SDS011;26309;50.924;4.754;2023-05-27T14:33:25;10.57;;;4.65;;
40599;SDS011;26309;50.924;4.754;2023-05-27T14:35:51;10.48;;;4.07;;
40599;SDS011;26309;50.924;4.754;2023-05-27T14:38:17;10.75;;;4.47;;
40599;SDS011;26309;50.924;4.754;2023-05-27T14:40:43;16.20;;;4.78;;